Time;durP1;ratioP1;P1;durP2;ratioP2;P2;SDS_P1;SDS_P2;PMS_P1;PMS_P2;Temp;Humidity;BMP_temperature;BMP_pressure;BME280_temperature;BME280_humidity;BME280_pressure;Samples;Min_cycle;Max_cycle;Signal;HPM_P1;HPM_P2
2022/12/16 00:01:29;;;;;;;19.30;12.80;;;3.20;96.10;;;;;;5094215;28;20663;-68
2022/12/16 00:03:58;;;;;;;23.13;13.52;;;3.20;96.10;;;;;;5095928;28;20224;-68
2022/12/16 00:06:42;;;;;;;20.88;12.90;;;3.20;96.00;;;;;;5104019;28;20241;-69
2022/12/16 00:09:12;;;;;;;20.48;12.23;;;3.30;96.10;;;;;;5094945;28;20185;-69
2022/12/16 00:14:23;;;;;;;16.35;11.55;;;3.20;96.00;;;;;;5106593;28;20562;-70
2022/12/16 00:16:50;;;;;;;19.90;12.88;;;3.20;96.10;;;;;;5097350;28;20216;-68
2022/12/16 00:19:17;;;;;;;18.30;12.20;;;3.20;96.10;;;;;;5099530;28;20234;-69
2022/12/16 00:21:45;;;;;;;16.38;12.23;;;3.20;96.10;;;;;;5094643;28;20185;-69
2022/12/16 00:24:14;;;;;;;18.40;12.65;;;3.30;96.00;;;;;;5112744;28;20196;-69
2022/12/16 00:26:56;;;;;;;19.38;12.20;;;3.20;96.00;;;;;;5110453;28;20200;-69
2022/12/16 00:29:25;;;;;;;20.92;12.32;;;3.20;96.00;;;;;;5092550;28;20258;-69
2022/12/16 00:31:55;;;;;;;19.27;12.50;;;3.20;96.10;;;;;;5095421;28;20193;-69
2022/12/16 00:34:23;;;;;;;19.00;11.82;;;3.20;96.00;;;;;;5116908;28;20210;-70
2022/12/16 00:36:50;;;;;;;18.40;12.35;;;3.20;96.10;;;;;;5114551;28;20192;-70
2022/12/16 00:39:17;;;;;;;20.70;14.10;;;3.20;96.10;;;;;;5096280;28;20666;-69
2022/12/16 00:41:46;;;;;;;22.17;14.00;;;3.20;96.30;;;;;;5096054;28;20264;-70
2022/12/16 00:44:14;;;;;;;21.73;13.85;;;3.20;96.40;;;;;;5116641;28;20185;-70
2022/12/16 00:46:43;;;;;;;21.83;13.85;;;3.20;96.40;;;;;;5116361;28;20196;-70
2022/12/16 00:49:10;;;;;;;14.73;10.93;;;3.20;96.40;;;;;;5116434;28;20188;-70
2022/12/16 00:51:37;;;;;;;17.00;12.27;;;3.20;96.40;;;;;;5116401;28;20193;-70
2022/12/16 00:54:05;;;;;;;22.33;12.15;;;3.20;96.40;;;;;;5096855;28;20197;-69
2022/12/16 00:56:32;;;;;;;22.10;12.35;;;3.20;96.30;;;;;;5103496;28;20268;-69
2022/12/16 00:58:59;;;;;;;18.90;12.45;;;3.30;96.40;;;;;;5116424;28;20216;-69
2022/12/16 01:01:28;;;;;;;20.60;12.73;;;3.20;96.40;;;;;;5109496;28;20272;-69
2022/12/16 01:03:58;;;;;;;16.67;11.82;;;3.30;96.40;;;;;;5095402;28;20260;-69
2022/12/16 01:06:25;;;;;;;18.90;12.40;;;3.30;96.40;;;;;;5102037;28;20188;-69
2022/12/16 01:08:52;;;;;;;16.17;11.60;;;3.30;96.30;;;;;;5096790;28;20185;-70
2022/12/16 01:11:20;;;;;;;16.98;11.55;;;3.30;96.30;;;;;;5116023;28;20188;-69
2022/12/16 01:13:51;;;;;;;19.35;11.20;;;3.30;96.20;;;;;;5116122;28;20193;-69
2022/12/16 01:16:18;;;;;;;22.05;14.27;;;3.30;96.20;;;;;;5095578;28;20192;-69
2022/12/16 01:18:46;;;;;;;19.70;11.38;;;3.30;96.20;;;;;;5104427;28;20575;-69
2022/12/16 01:21:15;;;;;;;17.10;10.32;;;3.30;96.20;;;;;;5115284;28;20709;-69
2022/12/16 01:23:43;;;;;;;18.10;12.05;;;3.30;96.10;;;;;;5106263;28;20204;-69
2022/12/16 01:26:15;;;;;;;20.38;11.73;;;3.30;96.20;;;;;;5095502;28;20193;-69
2022/12/16 01:28:42;;;;;;;19.30;11.80;;;3.30;96.20;;;;;;5103386;28;20202;-69
2022/12/16 01:31:11;;;;;;;20.20;12.20;;;3.30;96.20;;;;;;5115752;28;20196;-69
2022/12/16 01:33:39;;;;;;;21.05;12.88;;;3.30;96.10;;;;;;5108223;28;20195;-69
2022/12/16 01:36:08;;;;;;;19.70;12.13;;;3.30;96.30;;;;;;5095056;28;20193;-69
2022/12/16 01:38:37;;;;;;;17.88;12.00;;;3.30;96.20;;;;;;5100854;28;20562;-69
2022/12/16 01:41:05;;;;;;;17.55;10.43;;;3.30;96.10;;;;;;5115476;28;20200;-69
2022/12/16 01:43:34;;;;;;;17.35;10.75;;;3.30;96.10;;;;;;5109225;28;20188;-69
2022/12/16 01:46:06;;;;;;;16.92;11.18;;;3.30;96.10;;;;;;5095097;28;20189;-69
2022/12/16 01:48:44;;;;;;;16.73;12.52;;;3.30;96.10;;;;;;5110076;28;20184;-69
2022/12/16 01:51:20;;;;;;;18.23;12.18;;;3.20;96.10;;;;;;5115393;28;20180;-69
2022/12/16 01:53:55;;;;;;;15.45;12.50;;;3.20;96.10;;;;;;5097693;28;20224;-69
2022/12/16 01:56:25;;;;;;;17.77;11.07;;;3.20;96.20;;;;;;5100304;28;20658;-69
2022/12/16 01:58:59;;;;;;;16.42;11.05;;;3.20;96.30;;;;;;5094556;28;20298;-69
2022/12/16 02:01:26;;;;;;;16.80;11.98;;;3.30;96.40;;;;;;5111706;28;20200;-69
2022/12/16 02:03:56;;;;;;;18.85;10.65;;;3.20;96.40;;;;;;5114788;28;20224;-69
2022/12/16 02:06:24;;;;;;;18.75;12.50;;;3.20;96.40;;;;;;5112700;28;20216;-69
2022/12/16 02:08:57;;;;;;;15.18;10.57;;;3.20;96.30;;;;;;5114855;28;20192;-69
2022/12/16 02:11:54;;;;;;;15.02;10.30;;;3.30;96.40;;;;;;5099289;28;20259;-69
2022/12/16 02:14:40;;;;;;;17.15;10.43;;;3.30;96.40;;;;;;5094671;28;20176;-69
2022/12/16 02:17:15;;;;;;;18.75;11.63;;;3.20;96.20;;;;;;5094495;28;20219;-69
2022/12/16 02:20:15;;;;;;;17.10;10.02;;;3.20;96.20;;;;;;5094768;28;20189;-69
2022/12/16 02:22:59;;;;;;;17.38;11.50;;;3.20;96.30;;;;;;5089722;28;20398;-69
2022/12/16 02:25:47;;;;;;;16.52;11.63;;;3.20;96.30;;;;;;5104338;28;20181;-69
2022/12/16 02:28:29;;;;;;;16.67;11.88;;;3.20;96.40;;;;;;5114417;28;20235;-69
2022/12/16 02:31:14;;;;;;;15.60;10.77;;;3.20;96.30;;;;;;5109299;28;20276;-69
2022/12/16 02:33:52;;;;;;;14.75;9.20;;;3.20;96.40;;;;;;5114427;28;20283;-69
2022/12/16 02:36:33;;;;;;;15.70;9.48;;;3.20;96.50;;;;;;5097584;28;20707;-69
2022/12/16 02:39:10;;;;;;;17.77;10.75;;;3.20;96.50;;;;;;5094249;28;20216;-69
2022/12/16 02:41:44;;;;;;;16.17;9.27;;;3.20;96.50;;;;;;5111875;28;20203;-69
2022/12/16 02:44:27;;;;;;;13.98;9.98;;;3.10;96.90;;;;;;5114474;28;20192;-69
2022/12/16 02:46:56;;;;;;;14.93;9.32;;;3.10;96.60;;;;;;5113640;28;20191;-69
2022/12/16 02:49:51;;;;;;;16.95;11.13;;;3.10;96.70;;;;;;5109312;28;20235;-69
2022/12/16 02:52:22;;;;;;;14.27;9.48;;;3.10;96.90;;;;;;5046811;28;20215;-69
2022/12/16 02:54:56;;;;;;;14.77;10.23;;;3.10;97.00;;;;;;5099999;28;20185;-69
2022/12/16 02:57:50;;;;;;;15.05;10.63;;;3.10;97.00;;;;;;5111879;28;20244;-69
2022/12/16 03:00:20;;;;;;;12.98;8.00;;;3.10;97.00;;;;;;5102815;28;20185;-69
2022/12/16 03:03:00;;;;;;;12.88;9.70;;;3.20;97.10;;;;;;5093496;28;20528;-69
2022/12/16 03:05:32;;;;;;;14.68;9.30;;;3.20;97.10;;;;;;5104134;28;20216;-69
2022/12/16 03:08:05;;;;;;;13.98;8.20;;;3.20;97.10;;;;;;5114058;28;20188;-69
2022/12/16 03:10:40;;;;;;;12.73;8.05;;;3.20;97.10;;;;;;5102085;28;20196;-69
2022/12/16 03:13:08;;;;;;;14.50;10.10;;;3.20;97.10;;;;;;5093405;28;20643;-69
2022/12/16 03:15:36;;;;;;;9.85;7.53;;;3.30;97.10;;;;;;5108284;28;20184;-69
2022/12/16 03:18:08;;;;;;;13.65;9.63;;;3.30;97.00;;;;;;5105965;28;20224;-69
2022/12/16 03:20:40;;;;;;;14.57;8.73;;;3.30;96.90;;;;;;5093233;28;20193;-69
2022/12/16 03:23:14;;;;;;;11.75;8.35;;;3.30;96.70;;;;;;5100028;28;20275;-69
2022/12/16 03:25:45;;;;;;;15.05;9.10;;;3.30;96.70;;;;;;5113443;28;20188;-69
2022/12/16 03:28:28;;;;;;;14.02;8.23;;;3.30;96.60;;;;;;5105852;28;20209;-69
2022/12/16 03:31:03;;;;;;;12.45;8.32;;;3.30;96.60;;;;;;5093184;28;20600;-69
2022/12/16 03:33:38;;;;;;;12.88;7.70;;;3.30;96.60;;;;;;5101644;28;20188;-69
2022/12/16 03:36:12;;;;;;;15.77;9.50;;;3.30;96.50;;;;;;5113362;28;20192;-69
2022/12/16 03:38:41;;;;;;;11.57;8.10;;;3.30;96.60;;;;;;5103361;28;20216;-69
2022/12/16 03:41:09;;;;;;;12.93;8.95;;;3.30;96.50;;;;;;5092780;28;20549;-69
2022/12/16 03:43:41;;;;;;;14.52;8.18;;;3.30;96.50;;;;;;5100894;28;20271;-68
2022/12/16 03:46:09;;;;;;;12.10;9.20;;;3.30;96.50;;;;;;5113332;28;20196;-69
2022/12/16 03:48:45;;;;;;;12.18;8.77;;;3.30;96.40;;;;;;5104803;28;20181;-69
2022/12/16 03:51:13;;;;;;;11.65;8.18;;;3.30;96.40;;;;;;5092745;28;20250;-68
2022/12/16 03:53:40;;;;;;;10.50;8.20;;;3.30;96.20;;;;;;5111122;28;20256;-69
2022/12/16 03:56:08;;;;;;;10.77;7.88;;;3.30;96.20;;;;;;5113224;28;20199;-68
2022/12/16 03:58:37;;;;;;;14.13;8.40;;;3.30;96.20;;;;;;5095003;28;20271;-69
2022/12/16 04:01:04;;;;;;;10.82;8.02;;;3.30;96.30;;;;;;5092676;28;20203;-70
2022/12/16 04:03:32;;;;;;;11.57;7.72;;;3.30;96.30;;;;;;5108506;28;20265;-70
2022/12/16 04:06:00;;;;;;;9.75;7.15;;;3.30;96.40;;;;;;5112997;28;20234;-69
2022/12/16 04:08:27;;;;;;;11.65;8.55;;;3.30;96.30;;;;;;5097143;28;20368;-69
2022/12/16 04:25:00;;;;;;;9.07;5.80;;;3.20;96.70;;;;;;5113037;28;20200;-69
2022/12/16 04:27:28;;;;;;;8.73;6.07;;;3.20;96.60;;;;;;5108550;28;20223;-69
